Northeast Harbor, Maine
Current Conditions -  °F | °C
As of 12:55 AM on Sunday 23 Nov 2014 (Local Time) from KBHB Reporting Station
Clear Clear  
Wind Chill: 34°   Ceiling: Unl
Heat Index: 39°   Visibility: 10mi
Dew Point: 21°   Wind: 7mph
Humidity: 49%   Direction: 250°WSW
Pressure: 29.92"   Gusts: NA
Location:  44.29°N, 68.29°W
Report Text: KBHB 230555Z AUTO 25006KT 10SM CLR 04/M06 A2992 RMK AO1 10060 20030 54000
Loading
Personal Weather Stations






























Interactive Weather Map New forecast layout! Learn more

10-Day Weather Forecast

Advertisements
Track Severe Weather on mobile